createdAt,value
2022-09-03T00:02:12.828Z,11.97
2022-09-03T00:04:51.393Z,11.99
2022-09-03T00:07:27.356Z,11.94
2022-09-03T00:10:05.140Z,11.91
2022-09-03T00:12:43.534Z,11.87
2022-09-03T00:15:17.105Z,11.80
2022-09-03T00:17:49.672Z,11.80
2022-09-03T00:20:23.730Z,11.76
2022-09-03T00:22:56.797Z,11.78
2022-09-03T00:25:31.700Z,11.76
2022-09-03T00:28:09.341Z,11.71
2022-09-03T00:30:40.431Z,11.68
2022-09-03T00:33:19.007Z,11.64
2022-09-03T00:35:54.192Z,11.59
2022-09-03T00:38:25.189Z,11.55
2022-09-03T00:41:09.141Z,11.57
2022-09-03T00:44:05.939Z,11.60
2022-09-03T00:46:45.606Z,11.63
2022-09-03T00:49:35.466Z,11.65
2022-09-03T00:52:17.159Z,11.67
2022-09-03T00:54:56.964Z,11.62
2022-09-03T00:57:39.227Z,11.59
2022-09-03T01:00:16.275Z,11.49
2022-09-03T01:03:00.383Z,11.50
2022-09-03T01:06:01.928Z,11.44
2022-09-03T01:08:49.353Z,11.40
2022-09-03T01:11:28.097Z,11.38
2022-09-03T01:14:06.621Z,11.41
2022-09-03T01:16:47.775Z,11.41
2022-09-03T01:19:35.826Z,11.42
2022-09-03T01:22:24.849Z,11.43
2022-09-03T01:25:18.202Z,11.42
2022-09-03T01:27:58.753Z,11.42
2022-09-03T01:30:38.744Z,11.43
2022-09-03T01:33:26.370Z,11.45
2022-09-03T01:36:08.030Z,11.45
2022-09-03T01:38:45.181Z,11.42
2022-09-03T01:41:39.763Z,11.42
2022-09-03T01:44:24.163Z,11.44
2022-09-03T01:47:10.286Z,11.39
2022-09-03T01:49:53.542Z,11.38
2022-09-03T01:52:36.997Z,11.40
2022-09-03T01:55:18.763Z,11.40
2022-09-03T01:57:58.275Z,11.39
2022-09-03T02:00:31.909Z,11.38
2022-09-03T02:03:06.407Z,11.37
2022-09-03T02:05:37.723Z,11.35
2022-09-03T02:08:11.668Z,11.36
2022-09-03T02:10:45.654Z,11.36
2022-09-03T02:13:20.278Z,11.34
2022-09-03T02:15:53.694Z,11.34
2022-09-03T02:18:30.195Z,11.32
2022-09-03T02:21:03.727Z,11.26
2022-09-03T02:23:34.296Z,11.23
2022-09-03T02:26:06.627Z,11.21
2022-09-03T02:28:37.384Z,11.19
2022-09-03T02:31:08.497Z,11.19
2022-09-03T02:33:43.753Z,11.21
2022-09-03T02:36:16.686Z,11.19
2022-09-03T02:38:48.274Z,11.20
2022-09-03T02:41:18.616Z,11.15
2022-09-03T02:43:53.562Z,11.12
2022-09-03T02:46:27.918Z,11.10
2022-09-03T02:49:01.391Z,11.10
2022-09-03T02:51:36.236Z,11.10
2022-09-03T02:54:07.068Z,11.04
2022-09-03T02:56:38.332Z,11.01
2022-09-03T02:59:10.063Z,11.00
2022-09-03T03:01:40.543Z,10.98
2022-09-03T03:04:14.721Z,10.99
2022-09-03T03:06:47.597Z,10.98
2022-09-03T03:09:18.215Z,11.03
2022-09-03T03:11:50.332Z,11.05
2022-09-03T03:14:20.592Z,10.98
2022-09-03T03:16:50.747Z,10.98
2022-09-03T03:19:24.108Z,10.96
2022-09-03T03:21:54.412Z,10.94
2022-09-03T03:24:25.072Z,10.95
2022-09-03T03:26:59.829Z,10.95
2022-09-03T03:29:30.381Z,10.92
2022-09-03T03:32:03.475Z,10.92
2022-09-03T03:34:36.493Z,10.89
2022-09-03T03:37:06.860Z,10.91
2022-09-03T03:39:37.121Z,10.88
2022-09-03T03:42:08.103Z,10.84
2022-09-03T03:44:38.407Z,10.84
2022-09-03T03:47:08.806Z,10.77
2022-09-03T03:49:41.885Z,10.74
2022-09-03T03:52:12.515Z,10.76
2022-09-03T03:54:43.102Z,10.76
2022-09-03T03:57:13.710Z,10.77
2022-09-03T03:59:43.859Z,10.71
2022-09-03T04:02:14.255Z,10.72
2022-09-03T04:04:47.783Z,10.67
2022-09-03T04:07:18.408Z,10.65
2022-09-03T04:09:49.538Z,10.65
2022-09-03T04:12:20.778Z,10.66
2022-09-03T04:14:50.965Z,10.65
2022-09-03T04:17:25.131Z,10.71
2022-09-03T04:19:59.321Z,10.67
2022-09-03T04:22:31.015Z,10.65
2022-09-03T04:25:02.668Z,10.70
2022-09-03T04:27:33.041Z,10.74
2022-09-03T04:30:03.123Z,10.77
2022-09-03T04:32:47.133Z,10.80
2022-09-03T04:35:21.381Z,10.83
2022-09-03T04:37:52.361Z,10.85
2022-09-03T04:40:24.513Z,10.91
2022-09-03T04:42:59.483Z,10.95
2022-09-03T04:45:31.824Z,10.99
2022-09-03T04:48:04.041Z,11.03
2022-09-03T04:50:37.081Z,11.08
2022-09-03T04:53:08.530Z,11.13
2022-09-03T04:55:39.481Z,11.22
2022-09-03T04:58:11.132Z,11.29
2022-09-03T05:00:43.307Z,11.41
2022-09-03T05:03:17.446Z,11.51
2022-09-03T05:05:59.563Z,11.65
2022-09-03T05:08:30.243Z,11.80
2022-09-03T05:11:03.944Z,11.91
2022-09-03T05:13:34.755Z,11.97
2022-09-03T05:16:06.651Z,12.07
2022-09-03T05:18:38.279Z,12.17
2022-09-03T05:21:13.338Z,12.24
2022-09-03T05:23:51.393Z,12.36
2022-09-03T05:26:26.297Z,12.48
2022-09-03T05:28:59.223Z,12.59
2022-09-03T05:31:32.279Z,12.74
2022-09-03T05:34:05.474Z,12.89
2022-09-03T05:36:43.153Z,13.03
2022-09-03T05:39:13.299Z,13.20
2022-09-03T05:41:43.660Z,13.39
2022-09-03T05:44:14.629Z,13.59
2022-09-03T05:46:45.619Z,13.85
2022-09-03T05:49:18.438Z,14.01
2022-09-03T05:51:53.630Z,14.16
2022-09-03T05:54:24.083Z,14.33
2022-09-03T05:56:55.799Z,14.55
2022-09-03T05:59:28.186Z,14.78
2022-09-03T06:02:00.306Z,15.05
2022-09-03T06:04:31.713Z,15.18
2022-09-03T06:07:10.593Z,15.32
2022-09-03T06:09:43.308Z,15.47
2022-09-03T06:12:13.687Z,15.79
2022-09-03T06:14:44.992Z,16.02
2022-09-03T06:17:15.797Z,16.31
2022-09-03T06:19:46.324Z,16.31
2022-09-03T06:22:28.587Z,16.43
2022-09-03T06:25:15.744Z,16.51
2022-09-03T06:27:48.983Z,16.67
2022-09-03T06:30:20.798Z,16.76
2022-09-03T06:32:55.679Z,17.00
2022-09-03T06:35:25.830Z,17.19
2022-09-03T06:38:00.854Z,17.25
2022-09-03T06:40:39.970Z,17.39
2022-09-03T06:43:12.894Z,17.63
2022-09-03T06:45:51.110Z,17.57
2022-09-03T06:48:26.718Z,17.60
2022-09-03T06:51:07.039Z,17.83
2022-09-03T06:53:50.417Z,18.05
2022-09-03T06:56:29.588Z,18.04
2022-09-03T06:59:14.161Z,18.09
2022-09-03T07:01:47.952Z,18.29
2022-09-03T07:04:20.360Z,18.35
2022-09-03T07:06:50.885Z,18.47
2022-09-03T07:09:23.902Z,18.78
2022-09-03T07:11:54.262Z,19.00
2022-09-03T07:14:25.760Z,19.10
2022-09-03T07:16:57.386Z,19.47
2022-09-03T07:19:27.683Z,19.69
2022-09-03T07:21:57.879Z,19.78
2022-09-03T07:24:30.971Z,20.05
2022-09-03T07:27:02.204Z,20.00
2022-09-03T07:29:32.677Z,20.08
2022-09-03T07:32:03.831Z,20.10
2022-09-03T07:34:36.187Z,20.11
2022-09-03T07:37:07.912Z,19.72
2022-09-03T07:39:47.021Z,19.76
2022-09-03T07:42:23.585Z,20.26
2022-09-03T07:45:14.534Z,20.33
2022-09-03T07:47:54.314Z,20.72
2022-09-03T07:50:25.705Z,20.45
2022-09-03T07:53:01.573Z,20.51
2022-09-03T07:55:36.835Z,21.05
2022-09-03T07:58:07.987Z,20.93
2022-09-03T08:00:40.174Z,21.10
2022-09-03T08:03:10.939Z,21.07
2022-09-03T08:05:41.672Z,21.03
2022-09-03T08:08:15.472Z,21.16
2022-09-03T08:10:51.067Z,21.41
2022-09-03T08:13:22.323Z,21.29
2022-09-03T08:15:59.674Z,21.65
2022-09-03T08:18:39.413Z,21.78
2022-09-03T08:21:15.958Z,21.67
2022-09-03T08:23:48.271Z,21.97
2022-09-03T08:26:24.246Z,21.88
2022-09-03T08:28:57.132Z,22.15
2022-09-03T08:31:31.421Z,22.35
2022-09-03T08:34:07.001Z,22.34
2022-09-03T08:36:43.924Z,22.00
2022-09-03T08:39:14.995Z,22.09
2022-09-03T08:42:16.070Z,22.46
2022-09-03T08:44:52.726Z,22.49
2022-09-03T08:47:32.633Z,22.85
2022-09-03T08:50:06.729Z,22.94
2022-09-03T08:52:41.315Z,22.02
2022-09-03T08:55:22.016Z,22.43
2022-09-03T08:58:08.604Z,22.77
2022-09-03T09:01:02.517Z,22.64
2022-09-03T09:03:47.245Z,22.96
2022-09-03T09:06:33.325Z,22.89
2022-09-03T09:09:21.234Z,23.16
2022-09-03T09:12:06.441Z,22.99
2022-09-03T09:14:48.268Z,23.04
2022-09-03T09:17:34.533Z,23.37
2022-09-03T09:20:12.989Z,23.90
2022-09-03T09:22:47.761Z,23.17
2022-09-03T09:25:22.288Z,22.75
2022-09-03T09:27:58.636Z,23.35
2022-09-03T09:30:35.280Z,23.54
2022-09-03T09:33:05.793Z,23.65
2022-09-03T09:35:36.164Z,24.03
2022-09-03T09:38:06.576Z,24.19
2022-09-03T09:40:44.817Z,24.45
2022-09-03T09:43:17.977Z,24.14
2022-09-03T09:45:53.077Z,23.74
2022-09-03T09:48:31.746Z,23.63
2022-09-03T09:51:09.748Z,24.14
2022-09-03T09:53:40.271Z,24.20
2022-09-03T09:56:11.184Z,24.17
2022-09-03T09:58:41.357Z,24.23
2022-09-03T10:01:22.220Z,24.20
2022-09-03T10:03:55.535Z,24.59
2022-09-03T10:06:40.145Z,24.83
2022-09-03T10:09:11.775Z,25.23
2022-09-03T10:11:46.711Z,24.66
2022-09-03T10:14:24.759Z,24.59
2022-09-03T10:17:06.973Z,24.80
2022-09-03T10:20:09.220Z,25.00
2022-09-03T10:22:47.133Z,24.79
2022-09-03T10:25:33.181Z,25.27
2022-09-03T10:28:04.097Z,25.47
2022-09-03T10:30:46.629Z,25.12
2022-09-03T10:33:27.189Z,25.20
2022-09-03T10:36:11.020Z,25.79
2022-09-03T10:38:43.157Z,25.49
2022-09-03T10:41:30.106Z,25.75
2022-09-03T10:44:35.700Z,25.88
2022-09-03T10:47:23.735Z,25.55
2022-09-03T10:50:04.452Z,24.77
2022-09-03T10:52:44.480Z,24.18
2022-09-03T10:55:22.571Z,23.27
2022-09-03T10:58:17.289Z,23.25
2022-09-03T11:00:56.200Z,23.30
2022-09-03T11:03:45.802Z,22.96
2022-09-03T11:06:25.055Z,22.75
2022-09-03T11:09:06.477Z,24.08
2022-09-03T11:11:41.028Z,24.38
2022-09-03T11:14:13.974Z,25.03
2022-09-03T11:16:49.325Z,25.39
2022-09-03T11:19:23.598Z,24.58
2022-09-03T11:21:57.589Z,24.23
2022-09-03T11:24:33.188Z,24.86
2022-09-03T11:27:13.037Z,25.73
2022-09-03T11:29:51.877Z,25.91
2022-09-03T11:32:26.382Z,24.92
2022-09-03T11:34:58.245Z,24.60
2022-09-03T11:37:32.958Z,25.34
2022-09-03T11:40:13.803Z,24.66
2022-09-03T11:42:46.383Z,24.22
2022-09-03T11:45:25.630Z,24.41
2022-09-03T11:47:56.558Z,24.87
2022-09-03T11:50:29.508Z,24.71
2022-09-03T11:53:25.508Z,24.96
2022-09-03T11:55:58.993Z,24.47
2022-09-03T11:58:34.950Z,24.40
2022-09-03T12:01:07.705Z,24.26
2022-09-03T12:03:50.633Z,24.10
2022-09-03T12:06:43.489Z,24.14
2022-09-03T12:09:49.028Z,24.03
2022-09-03T12:12:35.972Z,23.83
2022-09-03T12:15:18.291Z,24.15
2022-09-03T12:18:18.653Z,23.79
2022-09-03T12:20:51.180Z,24.54
2022-09-03T12:23:31.336Z,25.03
2022-09-03T12:26:09.323Z,25.69
2022-09-03T12:28:44.336Z,25.39
2022-09-03T12:31:28.500Z,25.65
2022-09-03T12:34:01.811Z,25.23
2022-09-03T12:36:40.567Z,25.43
2022-09-03T12:39:14.811Z,24.70
2022-09-03T12:42:01.864Z,24.91
2022-09-03T12:44:35.214Z,24.10
2022-09-03T12:50:12.087Z,24.01
2022-09-03T12:52:47.990Z,23.98
2022-09-03T12:55:29.680Z,24.53
2022-09-03T12:58:10.323Z,24.18
2022-09-03T13:00:48.694Z,24.10
2022-09-03T13:03:23.704Z,23.84
2022-09-03T13:06:04.425Z,23.72
2022-09-03T13:08:39.229Z,23.57
2022-09-03T13:11:11.233Z,23.65
2022-09-03T13:13:58.382Z,23.46
2022-09-03T13:16:58.434Z,23.24
2022-09-03T13:19:41.775Z,23.37
2022-09-03T13:22:22.464Z,23.85
2022-09-03T13:25:14.407Z,23.43
2022-09-03T13:27:56.646Z,23.88
2022-09-03T13:30:39.099Z,24.11
2022-09-03T13:33:19.985Z,24.02
2022-09-03T13:35:56.477Z,24.08
2022-09-03T13:38:37.290Z,23.81
2022-09-03T13:41:19.841Z,24.54
2022-09-03T13:43:58.032Z,24.48
2022-09-03T13:46:41.482Z,24.56
2022-09-03T13:49:28.677Z,23.95
2022-09-03T13:52:04.448Z,23.98
2022-09-03T13:54:48.990Z,23.86
2022-09-03T13:57:33.542Z,23.99
2022-09-03T14:00:10.473Z,23.81
2022-09-03T14:03:01.283Z,23.97
2022-09-03T14:05:46.962Z,24.26
2022-09-03T14:08:39.504Z,24.55
2022-09-03T14:11:28.262Z,24.77
2022-09-03T14:14:15.139Z,24.91
2022-09-03T14:16:56.089Z,24.85
2022-09-03T14:19:39.389Z,24.65
2022-09-03T14:22:17.547Z,24.86
2022-09-03T14:24:52.292Z,24.76
2022-09-03T14:27:30.460Z,24.53
2022-09-03T14:30:04.492Z,24.35
2022-09-03T14:32:43.650Z,24.61
2022-09-03T14:35:50.975Z,24.62
2022-09-03T14:39:32.576Z,24.30
2022-09-03T14:42:36.700Z,24.18
2022-09-03T14:45:22.455Z,24.23
2022-09-03T14:48:27.288Z,24.25
2022-09-03T14:51:20.070Z,24.33
2022-09-03T14:54:20.224Z,24.21
2022-09-03T14:56:58.524Z,24.16
2022-09-03T14:59:57.802Z,24.02
2022-09-03T15:03:06.130Z,24.11
2022-09-03T15:05:51.837Z,24.10
2022-09-03T15:08:43.346Z,23.95
2022-09-03T15:11:20.487Z,23.95
2022-09-03T15:13:55.878Z,24.04
2022-09-03T15:16:40.171Z,23.98
2022-09-03T15:19:19.586Z,23.81
2022-09-03T15:22:06.443Z,23.86
2022-09-03T15:24:52.499Z,23.69
2022-09-03T15:27:41.853Z,23.71
2022-09-03T15:30:13.973Z,23.62
2022-09-03T15:32:57.909Z,23.55
2022-09-03T15:35:48.723Z,23.50
2022-09-03T15:38:34.085Z,23.36
2022-09-03T15:41:13.359Z,23.34
2022-09-03T15:43:45.548Z,23.25
2022-09-03T15:46:38.586Z,23.17
2022-09-03T15:49:20.293Z,23.21
2022-09-03T15:52:03.059Z,23.17
2022-09-03T15:54:44.293Z,23.07
2022-09-03T15:57:29.012Z,23.04
2022-09-03T16:00:10.144Z,22.86
2022-09-03T16:02:55.107Z,22.78
2022-09-03T16:06:30.120Z,22.73
2022-09-03T16:09:06.662Z,22.71
2022-09-03T16:11:48.463Z,22.61
2022-09-03T16:14:30.984Z,22.57
2022-09-03T16:17:09.627Z,22.53
2022-09-03T16:19:48.983Z,22.41
2022-09-03T16:22:29.624Z,22.30
2022-09-03T16:25:04.653Z,22.20
2022-09-03T16:27:42.111Z,21.98
2022-09-03T16:30:29.072Z,21.98
2022-09-03T16:33:08.529Z,21.94
2022-09-03T16:35:51.568Z,21.81
2022-09-03T16:38:38.062Z,21.75
2022-09-03T16:41:22.499Z,21.72
2022-09-03T16:44:02.992Z,21.60
2022-09-03T16:46:44.788Z,21.50
2022-09-03T16:49:38.597Z,21.43
2022-09-03T16:52:15.368Z,21.32
2022-09-03T16:55:03.796Z,21.22
2022-09-03T16:57:50.777Z,21.06
2022-09-03T17:00:26.473Z,21.03
2022-09-03T17:03:26.732Z,20.82
2022-09-03T17:06:22.115Z,20.69
2022-09-03T17:09:05.662Z,20.64
2022-09-03T17:11:43.697Z,20.46
2022-09-03T17:14:56.884Z,20.39
2022-09-03T17:17:39.877Z,20.24
2022-09-03T17:20:20.419Z,20.10
2022-09-03T17:23:05.480Z,20.05
2022-09-03T17:25:40.490Z,19.96
2022-09-03T17:28:31.679Z,19.82
2022-09-03T17:31:11.480Z,19.78
2022-09-03T17:33:51.893Z,19.65
2022-09-03T17:36:31.872Z,19.47
2022-09-03T17:39:33.715Z,19.43
2022-09-03T17:42:08.131Z,19.41
2022-09-03T17:44:56.246Z,19.40
2022-09-03T17:47:59.025Z,19.34
2022-09-03T17:50:34.698Z,19.26
2022-09-03T17:53:21.250Z,19.24
2022-09-03T17:55:59.257Z,19.21
2022-09-03T17:58:37.424Z,19.19
2022-09-03T18:01:18.518Z,19.12
2022-09-03T18:04:05.344Z,19.03
2022-09-03T18:06:41.096Z,19.00
2022-09-03T18:09:29.420Z,18.98
2022-09-03T18:12:11.375Z,18.88
2022-09-03T18:14:50.866Z,18.77
2022-09-03T18:17:30.670Z,18.73
2022-09-03T18:20:20.958Z,18.67
2022-09-03T18:23:09.147Z,18.62
2022-09-03T18:25:58.093Z,18.58
2022-09-03T18:28:51.138Z,18.55
2022-09-03T18:31:35.184Z,18.56
2022-09-03T18:34:20.601Z,18.63
2022-09-03T18:37:07.376Z,18.60
2022-09-03T18:39:54.406Z,18.60
2022-09-03T18:42:55.277Z,18.61
2022-09-03T18:49:02.836Z,18.69
2022-09-03T18:51:59.419Z,18.71
2022-09-03T18:55:07.980Z,18.80
2022-09-03T18:58:18.030Z,18.83
2022-09-03T19:01:17.334Z,18.76
2022-09-03T19:04:18.799Z,18.70
2022-09-03T19:07:15.472Z,18.68
2022-09-03T19:10:10.843Z,18.54
2022-09-03T19:13:23.038Z,18.52
2022-09-03T19:16:17.183Z,18.52
2022-09-03T19:19:20.316Z,18.41
2022-09-03T19:22:08.896Z,18.45
2022-09-03T19:24:53.284Z,18.36
2022-09-03T19:27:55.667Z,18.35
2022-09-03T19:30:53.650Z,18.35
2022-09-03T19:33:49.023Z,18.32
2022-09-03T19:36:40.561Z,18.36
2022-09-03T19:39:37.761Z,18.38
2022-09-03T19:42:29.426Z,18.28
2022-09-03T19:45:26.833Z,18.37
2022-09-03T19:48:27.853Z,18.19
2022-09-03T19:51:41.948Z,18.12
2022-09-03T19:54:25.198Z,18.10
2022-09-03T19:57:13.351Z,18.04
2022-09-03T19:59:57.729Z,18.01
2022-09-03T20:02:41.770Z,18.10
2022-09-03T20:05:34.188Z,17.96
2022-09-03T20:08:16.851Z,18.04
2022-09-03T20:10:49.788Z,18.01
2022-09-03T20:13:22.930Z,18.06
2022-09-03T20:16:01.339Z,17.98
2022-09-03T20:18:46.515Z,17.90
2022-09-03T20:21:26.333Z,17.81
2022-09-03T20:24:04.551Z,17.81
2022-09-03T20:26:47.145Z,17.80
2022-09-03T20:29:36.689Z,17.72
2022-09-03T20:32:14.435Z,17.73
2022-09-03T20:34:54.856Z,17.67
2022-09-03T20:37:41.771Z,17.67
2022-09-03T20:40:20.079Z,17.65
2022-09-03T20:43:12.562Z,17.65
2022-09-03T20:46:03.282Z,17.63
2022-09-03T20:48:45.936Z,17.59
2022-09-03T20:51:21.295Z,17.62
2022-09-03T20:54:13.324Z,17.43
2022-09-03T20:56:55.923Z,17.41
2022-09-03T20:59:40.689Z,17.34
2022-09-03T21:02:22.358Z,17.28
2022-09-03T21:05:06.778Z,17.31
2022-09-03T21:07:48.083Z,17.32
2022-09-03T21:10:30.271Z,17.44
2022-09-03T21:13:12.284Z,17.32
2022-09-03T21:15:56.828Z,17.24
2022-09-03T21:18:35.613Z,17.22
2022-09-03T21:21:17.115Z,17.14
2022-09-03T21:24:08.255Z,17.11
2022-09-03T21:26:53.428Z,17.09
2022-09-03T21:29:29.039Z,17.06
2022-09-03T21:32:09.693Z,17.02
2022-09-03T21:34:44.164Z,17.02
2022-09-03T21:37:27.761Z,16.98
2022-09-03T21:40:00.451Z,16.97
2022-09-03T21:42:42.761Z,16.91
2022-09-03T21:45:21.471Z,16.87
2022-09-03T21:48:04.613Z,16.82
2022-09-03T21:50:48.686Z,16.80
2022-09-03T21:53:21.634Z,16.75
2022-09-03T21:56:31.352Z,16.70
2022-09-03T21:59:33.423Z,16.63
2022-09-03T22:02:17.935Z,16.64
2022-09-03T22:04:57.633Z,16.56
2022-09-03T22:07:55.976Z,16.54
2022-09-03T22:10:37.331Z,16.51
2022-09-03T22:13:23.891Z,16.48
2022-09-03T22:16:06.312Z,16.48
2022-09-03T22:18:41.271Z,16.46
2022-09-03T22:21:21.482Z,16.48
2022-09-03T22:24:23.521Z,16.43
2022-09-03T22:27:02.899Z,16.38
2022-09-03T22:29:47.176Z,16.35
2022-09-03T22:32:44.011Z,16.29
2022-09-03T22:35:30.207Z,16.20
2022-09-03T22:38:40.686Z,16.19
2022-09-03T22:41:37.752Z,16.13
2022-09-03T22:44:25.340Z,16.08
2022-09-03T22:47:20.479Z,16.02
2022-09-03T22:50:09.173Z,16.00
2022-09-03T22:52:54.669Z,16.01
2022-09-03T22:55:30.752Z,16.02
2022-09-03T22:58:18.457Z,16.00
2022-09-03T23:00:58.589Z,16.01
2022-09-03T23:03:44.875Z,16.00
2022-09-03T23:06:33.028Z,16.00
2022-09-03T23:09:23.169Z,15.98
2022-09-03T23:12:12.550Z,15.98
2022-09-03T23:14:57.843Z,15.98
2022-09-03T23:17:43.668Z,15.95
2022-09-03T23:20:23.510Z,15.99
2022-09-03T23:23:13.444Z,16.02
2022-09-03T23:25:53.840Z,15.97
2022-09-03T23:28:33.772Z,15.95
2022-09-03T23:31:20.201Z,16.02
2022-09-03T23:33:58.828Z,15.98
2022-09-03T23:40:09.126Z,15.90
2022-09-03T23:43:02.992Z,15.87
2022-09-03T23:45:56.221Z,15.81
2022-09-03T23:48:38.315Z,15.80
2022-09-03T23:51:28.208Z,15.81
2022-09-03T23:54:17.512Z,15.82
2022-09-03T23:57:22.070Z,15.81
